createdAt,value
2018-06-02T00:01:25.791Z,99.90
2018-06-02T00:03:53.291Z,99.90
2018-06-02T00:06:20.772Z,99.90
2018-06-02T00:08:49.007Z,99.90
2018-06-02T00:11:16.576Z,99.90
2018-06-02T00:13:44.033Z,99.90
2018-06-02T00:16:11.516Z,99.90
2018-06-02T00:18:39.027Z,99.90
2018-06-02T00:21:06.507Z,99.90
2018-06-02T00:23:34.013Z,99.90
2018-06-02T00:26:02.258Z,99.90
2018-06-02T00:28:29.748Z,99.90
2018-06-02T00:30:57.239Z,99.90
2018-06-02T00:33:24.817Z,99.90
2018-06-02T00:35:52.341Z,99.90
2018-06-02T00:38:19.815Z,99.90
2018-06-02T00:40:47.305Z,99.90
2018-06-02T00:43:14.834Z,99.90
2018-06-02T00:45:42.314Z,99.90
2018-06-02T00:48:09.795Z,99.90
2018-06-02T00:50:38.038Z,99.90
2018-06-02T00:53:05.501Z,99.90
2018-06-02T00:55:32.986Z,99.90
2018-06-02T00:58:01.223Z,99.90
2018-06-02T01:00:28.711Z,99.90
2018-06-02T01:02:56.215Z,99.90
2018-06-02T01:05:23.711Z,99.90
2018-06-02T01:07:51.219Z,99.90
2018-06-02T01:10:18.715Z,99.90
2018-06-02T01:12:46.191Z,99.90
2018-06-02T01:15:13.787Z,99.90
2018-06-02T01:17:41.264Z,99.90
2018-06-02T01:20:08.761Z,99.90
2018-06-02T01:22:36.312Z,99.90
2018-06-02T01:25:03.857Z,99.90
2018-06-02T01:27:31.329Z,99.90
2018-06-02T01:29:58.855Z,99.90
2018-06-02T01:32:26.334Z,99.90
2018-06-02T01:34:53.835Z,99.90
2018-06-02T01:37:21.331Z,99.90
2018-06-02T01:39:48.808Z,99.90
2018-06-02T01:42:16.309Z,99.90
2018-06-02T01:44:44.556Z,99.90
2018-06-02T01:47:12.051Z,99.90
2018-06-02T01:49:40.307Z,99.90
2018-06-02T01:52:07.791Z,99.90
2018-06-02T01:54:35.275Z,99.90
2018-06-02T01:57:02.771Z,99.90
2018-06-02T01:59:30.239Z,99.90
2018-06-02T02:01:57.707Z,99.90
2018-06-02T02:04:25.972Z,99.90
2018-06-02T02:06:53.437Z,99.90
2018-06-02T02:09:20.937Z,99.90
2018-06-02T02:11:48.427Z,99.90
2018-06-02T02:14:17.088Z,99.90
2018-06-02T02:16:44.584Z,99.90
2018-06-02T02:19:12.078Z,99.90
2018-06-02T02:21:39.591Z,99.90
2018-06-02T02:24:07.080Z,99.90
2018-06-02T02:26:35.372Z,99.90
2018-06-02T02:29:02.873Z,99.90
2018-06-02T02:31:30.385Z,99.90
2018-06-02T02:33:58.632Z,99.90
2018-06-02T02:36:26.132Z,99.90
2018-06-02T02:38:53.635Z,99.90
2018-06-02T02:41:21.131Z,99.90
2018-06-02T02:43:49.386Z,99.90
2018-06-02T02:46:17.638Z,99.90
2018-06-02T02:48:45.138Z,99.90
2018-06-02T02:51:13.381Z,99.90
2018-06-02T02:53:40.883Z,99.90
2018-06-02T02:56:08.370Z,99.90
2018-06-02T02:58:35.854Z,99.90
2018-06-02T03:01:03.338Z,99.90
2018-06-02T03:03:31.631Z,99.90
2018-06-02T03:05:59.117Z,99.90
2018-06-02T03:08:26.593Z,99.90
2018-06-02T03:10:54.102Z,99.90
2018-06-02T03:13:21.590Z,99.90
2018-06-02T03:15:49.077Z,99.90
2018-06-02T03:18:16.593Z,99.90
2018-06-02T03:20:44.068Z,99.90
2018-06-02T03:23:11.563Z,99.90
2018-06-02T03:25:40.537Z,99.90
2018-06-02T03:28:08.034Z,99.90
2018-06-02T03:30:36.283Z,99.90
2018-06-02T03:33:03.779Z,99.90
2018-06-02T03:35:31.503Z,99.90
2018-06-02T03:37:58.969Z,99.90
2018-06-02T03:40:27.236Z,99.90
2018-06-02T03:42:54.713Z,99.90
2018-06-02T03:45:22.965Z,99.90
2018-06-02T03:47:50.485Z,99.90
2018-06-02T03:50:17.967Z,99.90
2018-06-02T03:52:45.438Z,99.90
2018-06-02T03:55:12.932Z,99.90
2018-06-02T03:57:40.400Z,99.90
2018-06-02T04:00:07.894Z,99.90
2018-06-02T04:02:35.377Z,99.90
2018-06-02T04:05:02.884Z,99.90
2018-06-02T04:07:30.390Z,99.90
2018-06-02T04:09:57.860Z,99.90
2018-06-02T04:12:26.107Z,99.90
2018-06-02T04:14:53.635Z,99.90
2018-06-02T04:17:21.116Z,99.90
2018-06-02T04:19:48.602Z,99.90
2018-06-02T04:22:16.871Z,99.90
2018-06-02T04:24:44.329Z,99.90
2018-06-02T04:27:11.848Z,99.90
2018-06-02T04:29:40.164Z,99.90
2018-06-02T04:32:07.654Z,99.90
2018-06-02T04:34:35.134Z,99.90
2018-06-02T04:37:02.631Z,99.90
2018-06-02T04:39:30.141Z,99.90
2018-06-02T04:41:57.644Z,99.90
2018-06-02T04:44:25.166Z,99.90
2018-06-02T04:46:52.694Z,99.90
2018-06-02T04:49:20.923Z,99.90
2018-06-02T04:51:48.445Z,99.90
2018-06-02T04:54:15.946Z,99.90
2018-06-02T04:56:44.143Z,99.90
2018-06-02T04:59:11.653Z,99.90
2018-06-02T05:01:39.133Z,99.90
2018-06-02T05:04:06.639Z,99.90
2018-06-02T05:06:34.152Z,99.90
2018-06-02T05:09:01.633Z,99.90
2018-06-02T05:11:29.107Z,99.90
2018-06-02T05:13:57.346Z,99.90
2018-06-02T05:16:24.859Z,99.90
2018-06-02T05:18:52.352Z,99.90
2018-06-02T05:21:19.859Z,99.90
2018-06-02T05:23:48.098Z,99.90
2018-06-02T05:26:15.591Z,99.90
2018-06-02T05:28:43.849Z,99.90
2018-06-02T05:31:11.340Z,99.90
2018-06-02T05:33:38.846Z,99.90
2018-06-02T05:36:06.333Z,99.90
2018-06-02T05:38:34.588Z,99.90
2018-06-02T05:41:02.101Z,99.90
2018-06-02T05:43:30.408Z,99.90
2018-06-02T05:45:57.951Z,99.90
2018-06-02T05:48:25.387Z,99.90
2018-06-02T05:50:53.149Z,99.90
2018-06-02T05:53:20.643Z,99.90
2018-06-02T05:55:48.165Z,99.90
2018-06-02T05:58:15.664Z,99.90
2018-06-02T06:00:43.174Z,99.90
2018-06-02T06:03:10.677Z,99.90
2018-06-02T06:05:38.174Z,99.90
2018-06-02T06:08:06.409Z,99.90
2018-06-02T06:10:33.913Z,99.90
2018-06-02T06:13:02.209Z,99.90
2018-06-02T06:15:29.718Z,99.90
2018-06-02T06:17:57.241Z,99.90
2018-06-02T06:20:24.712Z,99.90
2018-06-02T06:22:52.202Z,99.90
2018-06-02T06:25:19.695Z,99.90
2018-06-02T06:27:47.212Z,99.90
2018-06-02T06:30:14.727Z,99.90
2018-06-02T06:32:43.184Z,99.90
2018-06-02T06:35:10.709Z,99.90
2018-06-02T06:37:38.192Z,99.90
2018-06-02T06:40:05.687Z,99.90
2018-06-02T06:42:33.202Z,99.90
2018-06-02T06:45:01.452Z,99.90
2018-06-02T06:47:28.941Z,99.90
2018-06-02T06:49:56.418Z,99.90
2018-06-02T06:52:23.906Z,99.90
2018-06-02T06:54:51.387Z,99.90
2018-06-02T06:57:18.890Z,99.90
2018-06-02T06:59:46.398Z,99.90
2018-06-02T07:02:13.922Z,99.90
2018-06-02T07:04:41.386Z,99.90
2018-06-02T07:07:09.353Z,99.90
2018-06-02T07:09:36.821Z,99.90
2018-06-02T07:12:04.353Z,99.90
2018-06-02T07:14:32.578Z,99.90
2018-06-02T07:17:00.067Z,99.90
2018-06-02T07:19:27.578Z,99.90
2018-06-02T07:21:55.052Z,99.90
2018-06-02T07:24:23.301Z,99.90
2018-06-02T07:26:50.765Z,99.90
2018-06-02T07:29:18.403Z,99.90
2018-06-02T07:31:45.887Z,99.90
2018-06-02T07:34:13.434Z,99.90
2018-06-02T07:36:40.925Z,99.90
2018-06-02T07:39:08.432Z,99.90
2018-06-02T07:41:35.928Z,99.90
2018-06-02T07:44:03.396Z,99.90
2018-06-02T07:46:30.892Z,99.90
2018-06-02T07:48:59.150Z,99.90
2018-06-02T07:51:26.619Z,99.90
2018-06-02T07:53:54.854Z,99.90
2018-06-02T07:56:22.364Z,99.90
2018-06-02T07:58:49.853Z,99.90
2018-06-02T08:01:17.677Z,99.90
2018-06-02T08:03:46.095Z,99.90
2018-06-02T08:06:13.557Z,99.90
2018-06-02T08:08:41.077Z,99.90
2018-06-02T08:11:08.643Z,99.90
2018-06-02T08:13:36.104Z,99.90
2018-06-02T08:16:03.623Z,99.90
2018-06-02T08:18:32.288Z,99.90
2018-06-02T08:20:59.800Z,99.90
2018-06-02T08:23:27.286Z,99.90
2018-06-02T08:25:54.770Z,99.90
2018-06-02T08:28:22.280Z,99.90
2018-06-02T08:30:49.767Z,99.90
2018-06-02T08:33:17.307Z,99.90
2018-06-02T08:35:45.519Z,99.90
2018-06-02T08:38:12.977Z,99.90
2018-06-02T08:40:40.486Z,99.90
2018-06-02T08:43:07.958Z,99.90
2018-06-02T08:45:35.448Z,99.90
2018-06-02T08:48:02.928Z,99.90
2018-06-02T08:50:31.176Z,99.90
2018-06-02T08:52:58.674Z,99.90
2018-06-02T08:55:26.916Z,99.60
2018-06-02T08:57:55.151Z,99.60
2018-06-02T09:00:22.695Z,99.40
2018-06-02T09:02:50.123Z,99.60
2018-06-02T09:05:17.656Z,99.90
2018-06-02T09:07:45.413Z,99.90
2018-06-02T09:10:12.926Z,99.70
2018-06-02T09:12:41.206Z,99.90
2018-06-02T09:15:08.723Z,99.90
2018-06-02T09:17:36.228Z,99.80
2018-06-02T09:20:03.704Z,99.70
2018-06-02T09:22:31.225Z,99.60
2018-06-02T09:24:59.477Z,99.10
2018-06-02T09:27:26.951Z,99.00
2018-06-02T09:29:54.483Z,98.50
2018-06-02T09:32:21.948Z,99.50
2018-06-02T09:34:49.438Z,99.70
2018-06-02T09:37:17.058Z,99.10
2018-06-02T09:39:45.353Z,98.60
2018-06-02T09:42:12.827Z,98.50
2018-06-02T09:44:41.087Z,99.90
2018-06-02T09:47:08.576Z,99.90
2018-06-02T09:49:36.888Z,99.60
2018-06-02T09:52:04.399Z,99.60
2018-06-02T09:54:32.057Z,99.40
2018-06-02T09:57:02.816Z,98.60
2018-06-02T09:59:30.372Z,98.60
2018-06-02T10:01:57.853Z,98.60
2018-06-02T10:04:25.350Z,98.30
2018-06-02T10:06:52.895Z,97.20
2018-06-02T10:09:20.394Z,97.60
2018-06-02T10:11:48.694Z,97.20
2018-06-02T10:14:16.273Z,97.10
2018-06-02T10:16:44.526Z,97.90
2018-06-02T10:19:12.058Z,98.50
2018-06-02T10:21:40.373Z,98.50
2018-06-02T10:24:07.851Z,98.10
2018-06-02T10:26:35.319Z,98.10
2018-06-02T10:29:02.821Z,98.20
2018-06-02T10:31:30.315Z,99.10
2018-06-02T10:33:57.833Z,98.60
2018-06-02T10:36:26.085Z,97.90
2018-06-02T10:38:53.568Z,97.90
2018-06-02T10:41:21.779Z,96.60
2018-06-02T10:43:49.281Z,96.50
2018-06-02T10:46:16.763Z,96.10
2018-06-02T10:48:44.254Z,95.90
2018-06-02T10:51:11.774Z,96.70
2018-06-02T10:53:39.218Z,97.10
2018-06-02T10:56:07.519Z,96.90
2018-06-02T10:58:35.015Z,96.90
2018-06-02T11:01:02.531Z,96.00
2018-06-02T11:03:30.016Z,94.70
2018-06-02T11:05:57.521Z,95.50
2018-06-02T11:08:25.030Z,95.10
2018-06-02T11:10:52.555Z,93.90
2018-06-02T11:13:20.798Z,94.30
2018-06-02T11:15:48.296Z,93.90
2018-06-02T11:18:16.520Z,93.80
2018-06-02T11:20:44.008Z,93.70
2018-06-02T11:23:11.492Z,93.70
2018-06-02T11:25:39.061Z,94.00
2018-06-02T11:28:07.276Z,95.90
2018-06-02T11:30:34.774Z,96.00
2018-06-02T11:33:03.055Z,92.90
2018-06-02T11:35:30.558Z,92.80
2018-06-02T11:37:58.058Z,91.40
2018-06-02T11:40:26.290Z,90.50
2018-06-02T11:42:53.797Z,90.50
2018-06-02T11:45:22.090Z,92.60
2018-06-02T11:47:49.564Z,92.50
2018-06-02T11:50:17.195Z,91.90
2018-06-02T11:52:44.686Z,92.80
2018-06-02T11:55:12.166Z,91.30
2018-06-02T11:57:39.676Z,89.70
2018-06-02T12:00:07.170Z,91.30
2018-06-02T12:02:34.698Z,91.30
2018-06-02T12:05:02.222Z,90.80
2018-06-02T12:07:29.704Z,90.40
2018-06-02T12:09:57.201Z,88.10
2018-06-02T12:12:24.666Z,85.20
2018-06-02T12:14:52.151Z,87.40
2018-06-02T12:17:19.619Z,83.00
2018-06-02T12:19:47.862Z,86.20
2018-06-02T12:22:15.340Z,86.10
2018-06-02T12:24:42.807Z,88.30
2018-06-02T12:27:11.063Z,81.80
2018-06-02T12:29:38.527Z,81.70
2018-06-02T12:32:06.977Z,79.40
2018-06-02T12:34:34.462Z,78.50
2018-06-02T12:37:01.923Z,78.70
2018-06-02T12:39:29.398Z,79.40
2018-06-02T12:41:57.790Z,78.90
2018-06-02T12:44:25.996Z,84.00
2018-06-02T12:46:53.465Z,83.80
2018-06-02T12:49:20.941Z,82.00
2018-06-02T12:51:48.419Z,86.60
2018-06-02T12:54:15.896Z,82.30
2018-06-02T12:56:43.366Z,80.80
2018-06-02T12:59:10.901Z,82.50
2018-06-02T13:01:39.175Z,86.60
2018-06-02T13:04:11.374Z,86.50
2018-06-02T13:06:38.863Z,85.90
2018-06-02T13:09:06.356Z,86.20
2018-06-02T13:11:34.614Z,88.40
2018-06-02T13:14:02.098Z,88.40
2018-06-02T13:16:30.370Z,91.20
2018-06-02T13:18:59.808Z,91.10
2018-06-02T13:21:27.681Z,91.00
2018-06-02T13:23:55.169Z,91.70
2018-06-02T13:26:23.560Z,91.30
2018-06-02T13:28:51.033Z,91.80
2018-06-02T13:31:18.486Z,91.90
2018-06-02T13:33:46.709Z,91.20
2018-06-02T13:36:14.195Z,91.20
2018-06-02T13:38:41.665Z,91.80
2018-06-02T13:41:09.922Z,92.20
2018-06-02T13:43:37.407Z,92.10
2018-06-02T13:46:05.684Z,92.50
2018-06-02T13:48:33.940Z,92.00
2018-06-02T13:51:01.407Z,92.00
2018-06-02T13:53:28.887Z,92.10
2018-06-02T13:55:57.262Z,91.30
2018-06-02T13:58:25.490Z,91.60
2018-06-02T14:00:53.020Z,91.50
2018-06-02T14:03:20.504Z,90.20
2018-06-02T14:05:47.985Z,90.00
2018-06-02T14:08:15.454Z,89.40
2018-06-02T14:10:42.927Z,89.90
2018-06-02T14:13:10.427Z,90.00
2018-06-02T14:15:37.878Z,89.70
2018-06-02T14:18:05.367Z,90.20
2018-06-02T14:20:32.825Z,88.90
2018-06-02T14:23:00.305Z,88.10
2018-06-02T14:25:28.619Z,86.90
2018-06-02T14:27:56.050Z,86.80
2018-06-02T14:30:24.348Z,82.90
2018-06-02T14:32:52.687Z,86.20
2018-06-02T14:35:20.146Z,86.50
2018-06-02T14:37:48.385Z,84.50
2018-06-02T14:40:15.851Z,84.40
2018-06-02T14:42:43.323Z,81.00
2018-06-02T14:45:10.778Z,83.10
2018-06-02T14:47:38.279Z,83.60
2018-06-02T14:50:05.749Z,84.20
2018-06-02T14:52:33.211Z,84.80
2018-06-02T14:55:00.696Z,84.80
2018-06-02T14:57:28.191Z,86.70
2018-06-02T14:59:56.450Z,88.50
2018-06-02T15:02:23.925Z,88.40
2018-06-02T15:04:52.144Z,86.70
2018-06-02T15:07:19.654Z,86.70
2018-06-02T15:09:47.930Z,83.40
2018-06-02T15:12:16.148Z,79.80
2018-06-02T15:14:43.639Z,79.80
2018-06-02T15:17:11.115Z,80.70
2018-06-02T15:19:38.604Z,78.70
2018-06-02T15:22:06.073Z,77.70
2018-06-02T15:24:33.543Z,76.40
2018-06-02T15:27:01.021Z,78.00
2018-06-02T15:29:28.490Z,81.50
2018-06-02T15:31:55.985Z,81.80
2018-06-02T15:34:23.441Z,82.50
2018-06-02T15:36:50.906Z,76.90
2018-06-02T15:39:18.398Z,79.30
2018-06-02T15:41:45.866Z,79.40
2018-06-02T15:44:13.359Z,80.30
2018-06-02T15:46:41.589Z,80.40
2018-06-02T15:49:09.074Z,80.20
2018-06-02T15:51:36.565Z,81.80
2018-06-02T15:54:04.017Z,80.00
2018-06-02T15:56:31.495Z,80.40
2018-06-02T15:58:58.954Z,78.80
2018-06-02T16:01:26.457Z,79.80
2018-06-02T16:03:53.950Z,81.00
2018-06-02T16:06:21.444Z,77.10
2018-06-02T16:08:48.942Z,78.30
2018-06-02T16:11:16.399Z,80.50
2018-06-02T16:13:44.649Z,78.20
2018-06-02T16:16:12.133Z,78.10
2018-06-02T16:18:40.412Z,80.90
2018-06-02T16:21:08.673Z,86.80
2018-06-02T16:23:36.148Z,86.80
2018-06-02T16:26:03.626Z,85.10
2018-06-02T16:28:31.098Z,79.30
2018-06-02T16:30:58.565Z,80.70
2018-06-02T16:33:26.060Z,81.00
2018-06-02T16:35:53.528Z,81.30
2018-06-02T16:38:21.749Z,80.10
2018-06-02T16:40:49.240Z,80.00
2018-06-02T16:43:16.876Z,78.30
2018-06-02T16:45:44.378Z,77.50
2018-06-02T16:48:11.856Z,79.80
2018-06-02T16:50:40.084Z,81.10
2018-06-02T16:53:07.566Z,81.10
2018-06-02T16:55:35.046Z,80.70
2018-06-02T16:58:03.291Z,83.20
2018-06-02T17:00:30.757Z,83.10
2018-06-02T17:02:58.243Z,82.20
2018-06-02T17:05:25.723Z,82.60
2018-06-02T17:07:53.181Z,85.60
2018-06-02T17:10:20.684Z,87.50
2018-06-02T17:12:48.164Z,88.90
2018-06-02T17:15:16.394Z,90.40
2018-06-02T17:17:43.881Z,90.30
2018-06-02T17:20:11.353Z,90.50
2018-06-02T17:22:39.603Z,90.30
2018-06-02T17:25:07.065Z,90.30
2018-06-02T17:27:34.535Z,90.50
2018-06-02T17:30:02.012Z,90.70
2018-06-02T17:32:29.484Z,91.90
2018-06-02T17:34:56.979Z,91.90
2018-06-02T17:37:24.461Z,91.10
2018-06-02T17:39:52.002Z,91.60
2018-06-02T17:42:23.062Z,91.60
2018-06-02T17:44:50.539Z,90.70
2018-06-02T17:47:18.015Z,91.10
2018-06-02T17:49:45.494Z,91.10
2018-06-02T17:52:12.983Z,91.90
2018-06-02T17:54:40.496Z,91.80
2018-06-02T17:57:08.004Z,91.90
2018-06-02T17:59:35.470Z,91.70
2018-06-02T18:02:03.725Z,92.00
2018-06-02T18:04:31.190Z,91.90
2018-06-02T18:06:58.680Z,92.00
2018-06-02T18:09:26.162Z,91.60
2018-06-02T18:11:53.677Z,91.50
2018-06-02T18:14:21.155Z,91.70
2018-06-02T18:16:49.659Z,92.10
2018-06-02T18:19:17.147Z,92.00
2018-06-02T18:21:44.642Z,92.00
2018-06-02T18:24:12.886Z,92.30
2018-06-02T18:26:40.364Z,92.20
2018-06-02T18:29:07.850Z,92.70
2018-06-02T18:31:35.354Z,92.70
2018-06-02T18:34:02.822Z,92.90
2018-06-02T18:36:30.320Z,93.10
2018-06-02T18:38:57.784Z,93.40
2018-06-02T18:41:25.243Z,93.00
2018-06-02T18:43:52.725Z,93.40
2018-06-02T18:46:20.224Z,93.70
2018-06-02T18:48:47.699Z,94.30
2018-06-02T18:51:15.181Z,94.50
2018-06-02T18:53:42.768Z,94.60
2018-06-02T18:56:10.950Z,95.50
2018-06-02T18:58:38.422Z,95.10
2018-06-02T19:01:05.911Z,95.40
2018-06-02T19:03:33.424Z,95.70
2018-06-02T19:06:02.778Z,95.80
2018-06-02T19:08:30.286Z,95.90
2018-06-02T19:10:57.819Z,96.10
2018-06-02T19:13:25.321Z,95.60
2018-06-02T19:15:52.842Z,96.60
2018-06-02T19:18:20.306Z,96.80
2018-06-02T19:20:47.786Z,96.80
2018-06-02T19:23:15.267Z,96.90
2018-06-02T19:25:43.504Z,97.70
2018-06-02T19:28:11.104Z,97.60
2018-06-02T19:30:39.378Z,97.80
2018-06-02T19:33:07.621Z,98.00
2018-06-02T19:35:35.121Z,98.00
2018-06-02T19:38:03.364Z,98.30
2018-06-02T19:40:30.914Z,98.30
2018-06-02T19:42:58.414Z,98.40
2018-06-02T19:45:26.629Z,98.70
2018-06-02T19:47:54.145Z,98.70
2018-06-02T19:50:22.392Z,98.80
2018-06-02T19:52:49.890Z,98.70
2018-06-02T19:55:17.382Z,98.50
2018-06-02T19:57:46.429Z,98.80
2018-06-02T20:00:13.934Z,98.80
2018-06-02T20:02:41.417Z,99.00
2018-06-02T20:05:08.943Z,99.20
2018-06-02T20:07:36.433Z,99.20
2018-06-02T20:10:03.960Z,99.00
2018-06-02T20:12:31.448Z,99.10
2018-06-02T20:14:58.922Z,99.30
2018-06-02T20:17:26.401Z,99.30
2018-06-02T20:19:54.682Z,99.90
2018-06-02T20:22:22.179Z,99.90
2018-06-02T20:24:49.703Z,99.90
2018-06-02T20:27:18.000Z,99.90
2018-06-02T20:29:45.525Z,99.90
2018-06-02T20:32:13.071Z,99.90
2018-06-02T20:34:40.570Z,99.90
2018-06-02T20:37:08.085Z,99.90
2018-06-02T20:39:35.590Z,99.90
2018-06-02T20:42:03.146Z,99.90
2018-06-02T20:44:30.669Z,99.90
2018-06-02T20:46:58.148Z,99.90
2018-06-02T20:49:26.455Z,99.90
2018-06-02T20:51:53.971Z,99.90
2018-06-02T20:54:21.736Z,99.90
2018-06-02T20:56:49.200Z,99.90
2018-06-02T20:59:16.686Z,99.90
2018-06-02T21:01:44.178Z,99.90
2018-06-02T21:04:11.641Z,99.90
2018-06-02T21:06:39.171Z,99.90
2018-06-02T21:09:06.625Z,99.90
2018-06-02T21:11:34.124Z,99.90
2018-06-02T21:14:01.626Z,99.90
2018-06-02T21:16:29.095Z,99.90
2018-06-02T21:18:56.603Z,99.90
2018-06-02T21:21:24.842Z,99.90
2018-06-02T21:23:52.321Z,99.90
2018-06-02T21:26:19.842Z,99.90
2018-06-02T21:28:47.343Z,99.90
2018-06-02T21:31:14.827Z,99.90
2018-06-02T21:33:43.096Z,99.90
2018-06-02T21:36:10.546Z,99.90
2018-06-02T21:38:38.079Z,99.90
2018-06-02T21:41:05.596Z,99.90
2018-06-02T21:43:33.068Z,99.90
2018-06-02T21:46:00.566Z,99.90
2018-06-02T21:48:28.078Z,99.90
2018-06-02T21:50:55.576Z,99.90
2018-06-02T21:53:23.054Z,99.90
2018-06-02T21:55:51.315Z,99.90
2018-06-02T21:58:18.789Z,99.90
2018-06-02T22:00:47.028Z,99.90
2018-06-02T22:03:14.512Z,99.90
2018-06-02T22:05:41.981Z,99.90
2018-06-02T22:08:09.447Z,99.90
2018-06-02T22:10:37.693Z,99.90
2018-06-02T22:13:05.148Z,99.90
2018-06-02T22:15:32.630Z,99.90
2018-06-02T22:18:00.863Z,99.90
2018-06-02T22:20:28.321Z,99.90
2018-06-02T22:22:55.798Z,99.90
2018-06-02T22:25:23.252Z,99.90
2018-06-02T22:27:50.760Z,99.90
2018-06-02T22:30:18.237Z,99.90
2018-06-02T22:32:45.726Z,99.90
2018-06-02T22:35:13.194Z,99.90
2018-06-02T22:37:40.685Z,99.90
2018-06-02T22:40:08.177Z,99.90
2018-06-02T22:42:35.629Z,99.90
2018-06-02T22:45:03.138Z,99.90
2018-06-02T22:47:31.434Z,99.90
2018-06-02T22:49:58.952Z,99.90
2018-06-02T22:52:26.456Z,99.90
2018-06-02T22:54:53.941Z,99.90
2018-06-02T22:57:21.443Z,99.90
2018-06-02T22:59:48.910Z,99.90
2018-06-02T23:02:16.408Z,99.90
2018-06-02T23:04:43.877Z,99.90
2018-06-02T23:07:11.363Z,99.90
2018-06-02T23:09:39.810Z,99.90
2018-06-02T23:12:07.313Z,99.90
2018-06-02T23:14:34.779Z,99.90
2018-06-02T23:17:02.292Z,99.90
2018-06-02T23:19:29.727Z,99.90
2018-06-02T23:21:57.217Z,99.90
2018-06-02T23:24:24.723Z,99.90
2018-06-02T23:26:52.198Z,99.90
2018-06-02T23:29:19.810Z,99.90
2018-06-02T23:31:47.306Z,99.90
2018-06-02T23:34:14.785Z,99.90
2018-06-02T23:36:42.272Z,99.90
2018-06-02T23:39:10.508Z,99.90
2018-06-02T23:41:38.005Z,99.90
2018-06-02T23:44:05.475Z,99.90
2018-06-02T23:46:32.947Z,99.90
2018-06-02T23:49:01.189Z,99.90
2018-06-02T23:51:28.666Z,99.90
2018-06-02T23:53:56.124Z,99.90
2018-06-02T23:56:24.355Z,99.90
2018-06-02T23:58:51.849Z,99.90
